WetterOnline ( https://www.wetteronline.ch )

Wetter aktuell Vechta

Aktuelles Wetter: Diepholz (40m)

6-stündlich | Neueste Meldungen
Ortszeit Temperatur Wetter
So, 19.01. 1:00 1.8° C wolkenlos
Sa, 18.01. 19:00 2.9° C bewölkt
Sa, 18.01. 13:00 5.6° C bedeckt
Sa, 18.01. 7:00 3.7° C leicht bewölkt
Sa, 18.01. 1:00 5.8° C leichter Regen
Fr, 17.01. 19:00 8.2° C bedeckt
Fr, 17.01. 13:00 9.3° C bedeckt
Fr, 17.01. 7:00 4.7° C wolkig
Ortszeit Temperatur Wetter
So, 19.01. 6:00 1.7° C bewölkt
So, 19.01. 5:50 1.7° C bewölkt
So, 19.01. 5:40 1.6° C wolkig
So, 19.01. 5:30 1.3° C fast wolkenlos
So, 19.01. 5:20 1.3° C wolkenlos
So, 19.01. 5:10 1.1° C wolkenlos
So, 19.01. 5:00 1.2° C fast wolkenlos
So, 19.01. 4:30 1.3° C wolkig
So, 19.01. 4:00 1.8° C Sprühregen
So, 19.01. 3:30 1.8° C leichter Regen
So, 19.01. 3:00 1.6° C fast wolkenlos
Ortszeit Relative Feuchte Sichtweite
So, 19.01. 1:00 94% 30 km
Sa, 18.01. 19:00 89% 35 km
Sa, 18.01. 13:00 84% 26 km
Sa, 18.01. 7:00 91% 18 km
Sa, 18.01. 1:00 80% 16 km
Fr, 17.01. 19:00 95% 13 km
Fr, 17.01. 13:00 79% 45 km
Fr, 17.01. 7:00 87% 50 km
Ortszeit Relative Feuchte Sichtweite
So, 19.01. 6:00 95% 30 km
So, 19.01. 5:50 95% -
So, 19.01. 5:40 95% -
So, 19.01. 5:30 96% 30 km
So, 19.01. 5:20 96% -
So, 19.01. 5:10 96% -
So, 19.01. 5:00 96% 30 km
So, 19.01. 4:30 97% 28 km
So, 19.01. 4:00 97% 14 km
So, 19.01. 3:30 95% 19 km
So, 19.01. 3:00 94% 35 km
Ortszeit Niederschlagsmenge Niederschlagsart
So, 19.01. 1:00 0.2 l/m2 in 6 Std. Regen
Sa, 18.01. 19:00 0.1 l/m2 in 12 Std. Sprühregen
Sa, 18.01. 13:00 0.1 l/m2 in 6 Std. Regen
Sa, 18.01. 7:00 0.1 l/m2 in 12 Std. Regen
Sa, 18.01. 1:00 0.1 l/m2 in 6 Std. Regen
Fr, 17.01. 19:00 0.2 l/m2 in 12 Std. Regen
Fr, 17.01. 13:00 0.0 l/m2 in 6 Std. -
Fr, 17.01. 7:00 0.0 l/m2 in 12 Std. -
Ortszeit Niederschlagsmenge Niederschlagsart
So, 19.01. 6:00 0.0 l/m2 in 1 Std. -
So, 19.01. 5:50 keine Meldung -
So, 19.01. 5:40 keine Meldung -
So, 19.01. 5:30 0.0 l/m2 in 1 Std. -
So, 19.01. 5:20 keine Meldung -
So, 19.01. 5:10 keine Meldung -
So, 19.01. 5:00 0.1 l/m2 in 1 Std. Regen
So, 19.01. 4:30 0.1 l/m2 in 1 Std. Schneeregen
So, 19.01. 4:00 0.4 l/m2 in 1 Std. Regen
So, 19.01. 3:30 0.1 l/m2 in 1 Std. -
So, 19.01. 3:00 0.0 l/m2 in 1 Std. -
Ortszeit Stärke Spitze Richtung
km/h Bft. km/h Grad Sektor
So, 19.01. 1:00 13 3 28 270° W
Sa, 18.01. 19:00 11 2 32 240° SW
Sa, 18.01. 13:00 22 4 40 230° SW
Sa, 18.01. 7:00 22 4 36 230° SW
Sa, 18.01. 1:00 26 4 56 250° W
Fr, 17.01. 19:00 17 3 41 210° SW
Fr, 17.01. 13:00 13 3 24 190° S
Fr, 17.01. 7:00 11 2 29 170° S
Ortszeit Stärke Spitze Richtung
km/h Bft. km/h Grad Sektor
So, 19.01. 6:00 11 2 18 280° W
So, 19.01. 5:50 11 2 - 280° W
So, 19.01. 5:40 13 3 - 270° W
So, 19.01. 5:30 11 2 14 260° W
So, 19.01. 5:20 11 2 - 260° W
So, 19.01. 5:10 9 2 - 260° W
So, 19.01. 5:00 9 2 13 260° W
So, 19.01. 4:30 9 2 13 260° W
So, 19.01. 4:00 9 2 22 290° W
So, 19.01. 3:30 15 3 20 270° W
So, 19.01. 3:00 14 3 22 270° W
Ortszeit Untergrenze Bedeckung Gattung
total tief tief mittel hoch
So, 19.01. 1:00 930 m 0/8 0/8 - - -
Sa, 18.01. 19:00 1020 m 7/8 7/8 - - -
Sa, 18.01. 13:00 480 m 8/8 8/8 - - -
Sa, 18.01. 7:00 390 m 4/8 4/8 - - -
Sa, 18.01. 1:00 690 m 8/8 8/8 - - -
Fr, 17.01. 19:00 360 m 8/8 8/8 - - -
Fr, 17.01. 13:00 2100 m 8/8 8/8 - - -
Fr, 17.01. 7:00 8100 m 7/8 0/8 - - -
Ortszeit Bedeckungsgrad in Achtel und Wolkenuntergrenze
So, 19.01. 6:00 1(600m) 3(1080m) 7(1350m)
So, 19.01. 5:50 1(600m) 3(1080m) 7(1350m)
So, 19.01. 5:40 1(630m) 4(1110m) 5(1380m)
So, 19.01. 5:30 2(600m) 3(840m)
So, 19.01. 5:20 keine Wolken
So, 19.01. 5:10 keine Wolken
So, 19.01. 5:00 1(2700m)
So, 19.01. 4:30 2(1290m) 6(2700m) 6(4800m)
So, 19.01. 4:00 4(660m) 7(1290m) 7(1500m)
So, 19.01. 3:30 2(600m) 6(1350m) 6(1800m)
So, 19.01. 3:00 1(840m) 2(1260m) 3(1800m)
Ortszeit Luftdruck NN (hPa) Tendenz (hPa in 3 Std.)
So, 19.01. 1:00 1028 + 1,4
Sa, 18.01. 19:00 1025 + 2,0
Sa, 18.01. 13:00 1023 + 0,9
Sa, 18.01. 7:00 1020 + 1,0
Sa, 18.01. 1:00 1018 + 2,5
Fr, 17.01. 19:00 1014 + 0,5
Fr, 17.01. 13:00 1014 - 1,2
Fr, 17.01. 7:00 1017 - 2,0
Ortszeit Luftdruck NN (hPa) Tendenz (hPa in 3 Std.)
So, 19.01. 6:00 1031 + 1,7
So, 19.01. 5:50 1031 keine Meldung
So, 19.01. 5:40 1031 keine Meldung
So, 19.01. 5:30 1031 + 1,9
So, 19.01. 5:20 1031 keine Meldung
So, 19.01. 5:10 1031 keine Meldung
So, 19.01. 5:00 1031 + 1,8
So, 19.01. 4:30 1030 + 1,7
So, 19.01. 4:00 1030 + 2,0
So, 19.01. 3:30 1030 + 1,8
So, 19.01. 3:00 1030 + 1,8
Ortszeit Schneehöhe (cm)
So, 19.01. 1:00 0
Sa, 18.01. 19:00 0
Sa, 18.01. 13:00 0
Sa, 18.01. 7:00 0
Sa, 18.01. 1:00 0
Fr, 17.01. 19:00 0
Fr, 17.01. 13:00 0
Fr, 17.01. 7:00 0
Ortszeit Schneehöhe (cm)
So, 19.01. 6:00 0
So, 19.01. 5:50 0
So, 19.01. 5:40 0
So, 19.01. 5:30 0
So, 19.01. 5:20 0
So, 19.01. 5:10 0
So, 19.01. 5:00 0
So, 19.01. 4:30 0
So, 19.01. 4:00 0
So, 19.01. 3:30 0
So, 19.01. 3:00 0
Link zu dieser Seite / Seite empfehlen

Das Wetter in ...